Time;durP1;ratioP1;P1;durP2;ratioP2;P2;SDS_P1;SDS_P2;PMS_P1;PMS_P2;Temp;Humidity;BMP_temperature;BMP_pressure;BME280_temperature;BME280_humidity;BME280_pressure;Samples;Min_cycle;Max_cycle;Signal;HPM_P1;HPM_P2
2021/12/17 00:00:35;;;;;;;29.40;17.80;;;;;;;7.14;67.69;98661.06;5062929;28;20552;-72
2021/12/17 00:05:52;;;;;;;27.53;15.73;;;;;;;7.24;67.41;98651.75;5074421;28;20428;-71
2021/12/17 00:08:22;;;;;;;26.73;16.70;;;;;;;7.30;67.28;98640.09;5060797;28;20466;-69
2021/12/17 00:10:49;;;;;;;26.53;16.93;;;;;;;7.27;66.95;98650.72;5055558;28;20763;-69
2021/12/17 00:13:15;;;;;;;30.27;17.37;;;;;;;7.26;67.08;98651.66;5065647;28;20428;-68
2021/12/17 00:15:43;;;;;;;25.00;16.83;;;;;;;7.30;67.03;98643.53;5061113;28;20425;-69
2021/12/17 00:18:49;;;;;;;24.77;16.13;;;;;;;7.30;67.47;98645.31;5078267;28;20439;-70
2021/12/17 00:53:33;;;;;;;26.60;17.60;;;;;;;7.48;67.96;98632.88;5061224;28;20462;-67
2021/12/17 00:55:59;;;;;;;27.20;15.77;;;;;;;7.62;67.77;98619.78;5063959;28;20445;-69
2021/12/17 00:58:25;;;;;;;32.30;16.97;;;;;;;7.69;67.48;98615.84;5074242;28;20571;-68
2021/12/17 01:00:50;;;;;;;26.93;16.53;;;;;;;7.79;67.88;98613.47;5072418;28;20183;-68
2021/12/17 01:03:16;;;;;;;27.77;17.93;;;;;;;7.86;67.37;98624.34;5072640;28;20196;-68
2021/12/17 01:05:42;;;;;;;24.57;16.60;;;;;;;7.91;67.21;98629.28;5064074;28;20179;-67
2021/12/17 01:08:08;;;;;;;28.67;16.90;;;;;;;7.97;67.03;98628.84;5071647;28;20693;-68
2021/12/17 01:10:37;;;;;;;28.17;16.90;;;;;;;8.04;67.02;98624.91;5072617;28;20500;-67
2021/12/17 01:13:07;;;;;;;24.20;16.43;;;;;;;8.11;66.57;98626.16;5061617;28;20178;-68
2021/12/17 01:15:33;;;;;;;26.30;16.80;;;;;;;8.12;66.67;98616.56;5055742;28;20412;-67
2021/12/17 01:18:04;;;;;;;27.30;17.07;;;;;;;7.95;66.95;98608.06;5064280;28;20726;-67
2021/12/17 01:23:58;;;;;;;26.60;17.07;;;;;;;7.81;67.04;98590.69;5052664;28;20483;-71
2021/12/17 01:36:29;;;;;;;27.60;15.60;;;;;;;8.08;66.44;98600.25;5053684;28;20436;-68
2021/12/17 01:44:16;;;;;;;24.80;15.53;;;;;;;8.03;66.31;98618.03;5051449;28;20421;-68
2021/12/17 01:46:43;;;;;;;26.10;17.60;;;;;;;8.09;66.52;98617.59;5065407;28;20421;-68
2021/12/17 02:00:22;;;;;;;27.80;18.73;;;;;;;7.69;68.81;98625.44;5055953;28;21068;-69
2021/12/17 02:02:53;;;;;;;28.80;19.00;;;;;;;7.84;69.04;98623.59;5063160;28;20476;-68
2021/12/17 02:05:19;;;;;;;28.27;19.57;;;;;;;7.89;67.83;98618.91;5072147;28;20741;-69
2021/12/17 02:07:46;;;;;;;30.30;19.53;;;;;;;7.98;67.24;98612.25;5063516;28;20429;-68
2021/12/17 02:31:33;;;;;;;32.30;20.03;;;;;;;8.20;67.25;98587.31;5064776;28;20440;-69
2021/12/17 02:34:14;;;;;;;30.63;19.53;;;;;;;8.19;67.21;98585.66;5068626;28;20420;-68
2021/12/17 02:36:40;;;;;;;32.30;19.50;;;;;;;8.15;67.90;98588.47;5051323;28;20433;-67
2021/12/17 02:47:11;;;;;;;30.43;20.57;;;;;;;8.37;67.12;98562.69;5051005;28;20425;-69
2021/12/17 02:49:38;;;;;;;34.50;21.70;;;;;;;8.45;67.39;98570.81;5058012;28;20453;-68
2021/12/17 02:52:06;;;;;;;30.50;20.53;;;;;;;8.50;66.88;98558.31;5052955;28;20179;-69
2021/12/17 02:54:34;;;;;;;28.97;19.60;;;;;;;8.56;66.54;98554.44;5044945;28;20814;-69
2021/12/17 02:57:00;;;;;;;30.17;19.50;;;;;;;8.54;66.76;98551.09;5062616;28;20769;-69
2021/12/17 02:59:26;;;;;;;30.50;20.07;;;;;;;8.51;66.65;98549.50;5061390;28;20840;-68
2021/12/17 03:01:52;;;;;;;32.80;20.40;;;;;;;8.51;66.89;98551.28;5062271;28;20417;-68
2021/12/17 03:04:18;;;;;;;28.93;20.83;;;;;;;8.42;67.13;98556.19;5060262;28;20224;-68
2021/12/17 03:06:45;;;;;;;28.00;20.33;;;;;;;8.46;66.88;98549.78;5070700;28;20182;-70
2021/12/17 03:09:11;;;;;;;28.87;18.80;;;;;;;8.50;66.96;98544.41;5063071;28;20506;-68
2021/12/17 03:11:37;;;;;;;29.10;19.80;;;;;;;8.50;67.75;98552.22;5062821;28;20416;-67
2021/12/17 03:14:03;;;;;;;27.73;19.17;;;;;;;8.49;66.52;98556.63;5049666;28;20829;-68
2021/12/17 03:16:38;;;;;;;30.30;19.13;;;;;;;8.53;67.35;98554.66;5062604;28;20621;-68
2021/12/17 03:24:18;;;;;;;26.33;16.40;;;;;;;8.00;69.04;98545.91;5042343;28;20406;-69
2021/12/17 03:26:45;;;;;;;16.03;11.40;;;;;;;7.72;70.54;98546.94;5063037;28;20508;-70
2021/12/17 03:29:11;;;;;;;19.90;12.40;;;;;;;8.06;68.88;98555.16;5062611;28;20910;-68
2021/12/17 03:31:37;;;;;;;18.03;12.10;;;;;;;8.25;68.83;98557.31;5069526;28;20424;-67
2021/12/17 03:36:34;;;;;;;16.53;11.73;;;;;;;8.30;68.53;98555.25;5064084;28;20429;-69
2021/12/17 03:38:59;;;;;;;20.50;13.23;;;;;;;8.38;67.92;98557.34;5068990;28;20454;-68
2021/12/17 03:41:34;;;;;;;23.70;14.63;;;;;;;8.19;68.13;98562.16;5056376;28;20258;-69
2021/12/17 03:44:00;;;;;;;19.30;13.07;;;;;;;8.19;68.67;98567.38;5067225;28;20655;-68
2021/12/17 03:46:26;;;;;;;20.17;13.80;;;;;;;8.25;68.59;98559.09;5064903;28;20420;-69
2021/12/17 03:48:52;;;;;;;20.40;14.43;;;;;;;8.42;68.06;98565.78;5071373;28;20206;-70
2021/12/17 03:51:19;;;;;;;26.20;14.67;;;;;;;8.33;67.69;98561.19;5057276;28;20686;-67
2021/12/17 03:53:50;;;;;;;19.50;14.50;;;;;;;8.31;68.52;98558.72;5058844;28;20435;-69
2021/12/17 03:56:16;;;;;;;24.40;15.57;;;;;;;8.18;68.28;98568.31;5055285;28;20507;-67
2021/12/17 03:58:42;;;;;;;23.83;15.77;;;;;;;8.11;68.60;98566.09;5060177;28;21137;-68
2021/12/17 04:01:08;;;;;;;22.07;15.80;;;;;;;8.20;67.72;98569.88;5069671;28;20448;-68
2021/12/17 04:03:33;;;;;;;24.73;17.03;;;;;;;7.81;69.30;98566.38;5061200;28;20231;-68
2021/12/17 04:05:59;;;;;;;30.47;16.77;;;;;;;7.67;69.37;98567.28;5027713;28;20917;-68
2021/12/17 04:08:25;;;;;;;26.77;16.30;;;;;;;7.53;69.53;98576.88;5063634;28;20206;-69
2021/12/17 04:10:53;;;;;;;27.60;17.90;;;;;;;7.66;69.49;98576.06;5065163;28;20174;-68
2021/12/17 04:15:53;;;;;;;23.27;15.90;;;;;;;7.67;69.87;98565.50;5053289;28;20446;-70
2021/12/17 04:18:19;;;;;;;27.03;16.90;;;;;;;7.77;69.39;98557.91;5065668;28;20432;-69
2021/12/17 04:20:44;;;;;;;25.97;17.23;;;;;;;7.82;68.90;98553.22;5061422;28;20500;-69
2021/12/17 04:23:10;;;;;;;26.60;16.83;;;;;;;7.87;68.73;98554.69;5061890;28;20228;-70
2021/12/17 04:25:36;;;;;;;30.33;18.40;;;;;;;7.59;69.17;98559.13;5063269;28;20171;-68
2021/12/17 04:28:01;;;;;;;24.20;16.00;;;;;;;7.71;69.71;98557.47;5051201;28;20618;-69
2021/12/17 04:30:28;;;;;;;28.63;17.07;;;;;;;7.66;69.65;98553.41;5061721;28;20215;-69
2021/12/17 04:32:54;;;;;;;28.10;16.80;;;;;;;7.81;69.06;98556.75;5062804;28;20174;-68
2021/12/17 04:35:20;;;;;;;23.27;16.53;;;;;;;7.60;69.60;98560.78;5048681;28;20499;-68
2021/12/17 04:37:46;;;;;;;27.53;16.00;;;;;;;7.58;69.94;98562.66;5058066;28;20418;-68
2021/12/17 04:40:12;;;;;;;25.23;16.83;;;;;;;7.49;70.16;98569.34;5068889;28;20498;-70
2021/12/17 04:45:04;;;;;;;22.37;16.00;;;;;;;7.40;70.84;98573.38;5071638;28;20428;-68
2021/12/17 04:58:26;;;;;;;20.90;14.50;;;;;;;7.83;69.42;98546.22;5046398;28;20944;-67
2021/12/17 05:00:52;;;;;;;14.90;11.80;;;;;;;7.95;68.80;98542.81;5052732;28;20439;-68
2021/12/17 05:03:18;;;;;;;16.23;12.10;;;;;;;8.11;68.54;98536.56;5065704;28;20416;-68
2021/12/17 05:05:43;;;;;;;15.10;11.60;;;;;;;7.74;70.24;98545.06;5057844;28;20426;-69
2021/12/17 05:08:16;;;;;;;17.17;10.93;;;;;;;7.63;71.23;98543.16;5041661;28;20193;-68
2021/12/17 05:11:15;;;;;;;13.77;10.40;;;;;;;7.97;69.88;98540.94;5052636;28;20179;-70
2021/12/17 05:19:23;;;;;;;13.20;10.10;;;;;;;8.02;69.32;98543.22;5060859;28;20451;-69
2021/12/17 05:21:49;;;;;;;12.33;9.43;;;;;;;7.90;69.64;98533.63;5057379;28;20467;-68
2021/12/17 05:24:15;;;;;;;13.00;8.93;;;;;;;8.00;69.06;98537.28;5064882;28;20421;-68
2021/12/17 05:26:40;;;;;;;14.47;9.40;;;;;;;8.12;68.76;98530.41;5058065;28;20201;-70
2021/12/17 05:29:06;;;;;;;13.17;9.23;;;;;;;8.13;68.35;98532.88;5052810;28;20206;-68
2021/12/17 05:31:31;;;;;;;11.47;8.73;;;;;;;7.98;68.52;98533.91;5062439;28;20178;-68
2021/12/17 05:33:58;;;;;;;13.93;10.27;;;;;;;8.25;67.68;98528.59;5054882;28;20531;-69
2021/12/17 05:36:24;;;;;;;17.00;10.50;;;;;;;8.18;68.11;98537.78;5058673;28;20544;-69
2021/12/17 05:38:49;;;;;;;14.60;10.30;;;;;;;8.11;68.53;98541.78;5060639;28;20516;-69
2021/12/17 05:41:15;;;;;;;14.63;10.40;;;;;;;8.09;68.55;98533.22;5061456;28;20186;-68
2021/12/17 05:43:41;;;;;;;10.57;8.00;;;;;;;7.94;68.74;98535.09;5062396;28;20179;-68
2021/12/17 05:48:33;;;;;;;11.77;8.90;;;;;;;8.22;68.24;98530.56;5069228;28;20207;-69
2021/12/17 05:51:01;;;;;;;11.70;8.90;;;;;;;8.36;67.60;98535.69;5047313;28;20936;-70
2021/12/17 05:53:28;;;;;;;12.10;9.30;;;;;;;8.26;67.25;98527.66;5072894;28;20504;-67
2021/12/17 05:55:54;;;;;;;11.23;9.10;;;;;;;7.98;67.58;98536.53;5061622;28;20431;-68
2021/12/17 05:58:20;;;;;;;10.93;8.80;;;;;;;7.87;68.31;98529.44;5060297;28;20442;-69
2021/12/17 06:00:46;;;;;;;11.17;8.43;;;;;;;8.07;68.35;98532.47;5044585;28;20484;-69
2021/12/17 06:03:12;;;;;;;11.60;8.33;;;;;;;8.30;67.03;98529.13;5059102;28;20426;-68
2021/12/17 06:05:38;;;;;;;13.87;9.47;;;;;;;8.30;66.82;98529.13;5048680;28;20172;-68
2021/12/17 06:08:04;;;;;;;11.10;9.30;;;;;;;8.43;67.13;98521.28;5076284;28;20486;-70
2021/12/17 06:10:31;;;;;;;13.80;10.00;;;;;;;8.60;66.68;98516.66;5081822;28;20273;-69
2021/12/17 06:12:56;;;;;;;13.10;9.20;;;;;;;8.49;66.32;98519.19;5076330;28;20419;-68
2021/12/17 06:15:22;;;;;;;15.67;11.13;;;;;;;8.23;66.93;98529.66;5055227;28;20419;-69
2021/12/17 06:17:49;;;;;;;11.90;8.30;;;;;;;8.08;67.47;98518.47;5056858;28;20179;-68
2021/12/17 06:20:16;;;;;;;11.37;8.50;;;;;;;7.81;67.14;98529.84;5069258;28;20906;-68
2021/12/17 06:22:42;;;;;;;10.63;7.93;;;;;;;7.84;67.75;98522.63;5063437;28;20435;-68
2021/12/17 06:25:09;;;;;;;12.03;8.33;;;;;;;8.14;66.77;98518.91;5063573;28;20923;-68
2021/12/17 06:27:35;;;;;;;13.37;10.60;;;;;;;8.18;66.55;98522.13;5053769;28;20237;-68
2021/12/17 06:30:02;;;;;;;12.57;9.57;;;;;;;7.69;67.71;98532.31;5069922;28;20456;-69
2021/12/17 06:32:27;;;;;;;11.70;9.10;;;;;;;8.06;66.50;98542.09;5072110;28;20424;-69
2021/12/17 06:34:53;;;;;;;10.80;8.10;;;;;;;8.10;67.06;98533.09;5071242;28;20420;-71
2021/12/17 06:37:20;;;;;;;13.77;9.50;;;;;;;8.13;67.13;98540.72;5058646;28;20550;-67
2021/12/17 06:39:47;;;;;;;12.83;10.10;;;;;;;8.17;67.43;98543.13;5060136;28;20277;-69
2021/12/17 06:42:13;;;;;;;13.07;9.43;;;;;;;8.03;67.34;98550.13;5071431;28;20475;-69
2021/12/17 06:44:39;;;;;;;14.13;9.60;;;;;;;7.56;68.19;98549.72;5064664;28;20418;-70
2021/12/17 06:55:05;;;;;;;18.50;11.17;;;;;;;7.62;67.86;98530.22;5062592;28;20196;-70
2021/12/17 07:09:13;;;;;;;13.33;10.13;;;;;;;7.85;68.30;98552.19;5067894;28;20410;-68
2021/12/17 07:10:58;;;;;;;15.70;10.80;;;;;;;7.97;67.45;98560.97;5064548;28;20875;-71
2021/12/17 07:24:46;;;;;;;17.90;12.13;;;;;;;7.65;68.51;98579.59;5067944;28;22436;-69
2021/12/17 07:32:43;;;;;;;18.33;13.23;;;;;;;7.73;68.49;98579.94;5053028;28;20524;-69
2021/12/17 07:40:10;;;;;;;20.43;13.80;;;;;;;7.51;68.75;98591.78;5035382;28;20495;-68
2021/12/17 07:42:36;;;;;;;21.70;14.30;;;;;;;7.67;68.27;98589.00;5054619;28;20520;-67
2021/12/17 07:45:04;;;;;;;24.53;13.80;;;;;;;7.73;68.58;98600.81;5042940;28;20442;-69
2021/12/17 07:47:29;;;;;;;23.50;14.67;;;;;;;7.65;68.69;98597.88;5051937;28;20955;-68
2021/12/17 07:49:55;;;;;;;22.43;14.20;;;;;;;7.73;68.37;98595.59;5059215;28;20468;-69
2021/12/17 07:52:21;;;;;;;21.57;13.97;;;;;;;7.79;67.63;98583.91;5063195;28;20274;-69
2021/12/17 07:54:46;;;;;;;20.60;13.90;;;;;;;7.98;67.77;98579.16;5050801;28;20599;-67
2021/12/17 07:57:12;;;;;;;19.83;13.30;;;;;;;8.00;67.37;98577.25;5062608;28;20217;-68
2021/12/17 07:59:39;;;;;;;15.80;11.90;;;;;;;8.04;67.45;98587.50;5061353;28;20206;-67
2021/12/17 08:02:06;;;;;;;18.13;12.30;;;;;;;7.82;67.16;98592.38;5057131;28;20186;-68
2021/12/17 08:04:32;;;;;;;16.67;11.30;;;;;;;8.03;67.22;98584.06;5075068;28;20425;-68
2021/12/17 08:06:57;;;;;;;16.67;12.47;;;;;;;8.09;66.58;98585.44;5072673;28;20975;-68
2021/12/17 08:09:24;;;;;;;19.03;12.67;;;;;;;8.05;66.52;98584.81;5052911;28;20546;-67
2021/12/17 08:11:55;;;;;;;16.23;12.13;;;;;;;7.80;66.93;98589.03;5051320;28;20186;-69
2021/12/17 08:14:22;;;;;;;15.90;11.50;;;;;;;7.99;66.74;98585.19;5053532;28;20453;-69
2021/12/17 08:25:17;;;;;;;14.90;10.97;;;;;;;7.76;66.02;98600.63;5066778;28;20543;-68
2021/12/17 08:32:45;;;;;;;13.90;10.90;;;;;;;8.26;65.22;98585.13;5065016;28;20537;-69
2021/12/17 08:35:11;;;;;;;13.60;10.47;;;;;;;8.06;65.16;98591.72;5065408;28;20417;-69
2021/12/17 08:37:37;;;;;;;13.00;9.40;;;;;;;8.00;65.24;98607.75;5066698;28;20425;-69
2021/12/17 08:40:05;;;;;;;11.40;8.47;;;;;;;7.84;65.09;98605.34;5056648;28;20883;-68
2021/12/17 08:42:30;;;;;;;14.80;10.93;;;;;;;8.03;63.84;98604.09;5074520;28;20976;-68
2021/12/17 08:44:56;;;;;;;13.07;9.53;;;;;;;7.96;64.66;98601.91;5069865;28;20425;-69
2021/12/17 08:47:22;;;;;;;12.53;8.70;;;;;;;8.33;63.95;98603.81;5068604;28;20186;-68
2021/12/17 08:49:50;;;;;;;12.67;9.00;;;;;;;8.22;63.14;98606.31;5073415;28;20255;-69
2021/12/17 08:52:16;;;;;;;12.80;9.43;;;;;;;8.22;63.15;98611.56;5069223;28;20439;-70
2021/12/17 08:54:41;;;;;;;11.60;8.53;;;;;;;8.05;63.92;98616.16;5069105;28;20424;-69
2021/12/17 08:57:07;;;;;;;12.90;9.33;;;;;;;8.22;63.14;98624.59;5071309;28;20433;-69
2021/12/17 08:59:32;;;;;;;11.23;8.60;;;;;;;7.96;63.21;98611.50;5078149;28;20597;-68
2021/12/17 09:01:58;;;;;;;12.17;9.20;;;;;;;8.15;62.81;98608.50;5082060;28;20202;-70
2021/12/17 09:04:27;;;;;;;12.37;9.30;;;;;;;8.18;63.16;98610.94;5054636;28;20271;-67
2021/12/17 09:06:54;;;;;;;13.17;9.13;;;;;;;8.35;62.04;98606.34;5065445;28;20460;-68
2021/12/17 09:09:22;;;;;;;11.70;8.63;;;;;;;8.01;62.68;98614.66;5068129;28;20452;-67
2021/12/17 09:11:49;;;;;;;10.77;8.27;;;;;;;7.99;63.03;98619.16;5065939;28;20466;-69
2021/12/17 09:14:16;;;;;;;10.17;7.83;;;;;;;7.97;63.11;98610.56;5071164;28;20787;-67
2021/12/17 09:16:42;;;;;;;12.03;8.00;;;;;;;8.14;63.83;98618.13;5044205;28;20443;-67
2021/12/17 09:19:09;;;;;;;9.97;7.47;;;;;;;8.46;61.65;98609.88;5053615;28;20428;-68
2021/12/17 09:21:35;;;;;;;9.40;7.80;;;;;;;8.54;61.49;98619.03;5071682;28;20762;-69
2021/12/17 09:24:01;;;;;;;10.53;8.43;;;;;;;8.48;61.72;98622.06;5065295;28;20429;-68
2021/12/17 09:26:27;;;;;;;9.60;8.47;;;;;;;8.51;60.84;98619.25;5066678;28;20424;-69
2021/12/17 09:28:53;;;;;;;11.30;8.67;;;;;;;8.30;60.68;98617.13;5059638;28;20231;-67
2021/12/17 09:31:18;;;;;;;11.70;8.93;;;;;;;8.69;60.71;98610.16;5056952;28;20205;-67
2021/12/17 09:33:49;;;;;;;11.00;9.33;;;;;;;8.91;60.03;98613.88;5049211;28;20218;-67
2021/12/17 09:36:15;;;;;;;12.67;9.10;;;;;;;9.03;59.89;98613.00;5051512;28;20198;-66
2021/12/17 09:38:41;;;;;;;11.80;8.87;;;;;;;8.74;60.10;98607.22;5054799;28;20963;-67
2021/12/17 09:41:07;;;;;;;12.50;9.07;;;;;;;8.97;59.54;98591.69;5063816;28;20504;-68
2021/12/17 09:43:35;;;;;;;13.00;10.10;;;;;;;8.95;59.75;98601.41;5051266;28;20584;-68
2021/12/17 09:46:04;;;;;;;12.57;9.60;;;;;;;8.91;60.00;98592.97;5061182;28;21005;-67
2021/12/17 09:48:30;;;;;;;11.07;9.00;;;;;;;8.76;59.94;98606.16;5049167;28;20454;-67
2021/12/17 09:50:56;;;;;;;13.23;9.13;;;;;;;9.07;58.79;98596.13;5039969;28;20964;-68
2021/12/17 09:53:22;;;;;;;11.97;9.10;;;;;;;9.20;58.61;98595.28;5052439;28;20183;-67
2021/12/17 09:55:50;;;;;;;17.20;11.20;;;;;;;9.40;58.21;98603.47;5061867;28;20490;-67
2021/12/17 09:58:16;;;;;;;15.77;10.30;;;;;;;9.40;57.57;98593.84;5072172;28;20425;-68
2021/12/17 10:00:42;;;;;;;12.60;9.73;;;;;;;9.42;57.73;98591.94;5055328;28;20931;-67
2021/12/17 10:03:08;;;;;;;14.53;10.40;;;;;;;9.19;58.77;98598.84;5068693;28;20423;-68
2021/12/17 10:05:36;;;;;;;13.67;9.80;;;;;;;9.30;58.89;98596.31;5071369;28;20231;-67
2021/12/17 10:08:05;;;;;;;14.93;10.13;;;;;;;9.04;58.68;98595.53;5053890;28;20451;-69
2021/12/17 10:10:39;;;;;;;9.50;7.97;;;;;;;9.21;58.82;98592.56;5058375;28;20479;-68
2021/12/17 10:13:09;;;;;;;12.63;9.17;;;;;;;9.24;58.04;98588.06;5065388;28;20527;-67
2021/12/17 10:15:37;;;;;;;12.83;9.10;;;;;;;9.33;58.82;98593.44;5061727;28;20426;-68
2021/12/17 10:18:03;;;;;;;12.00;9.50;;;;;;;9.34;57.25;98594.28;5062470;28;20413;-67
2021/12/17 10:20:35;;;;;;;12.47;8.80;;;;;;;9.53;56.92;98585.94;5052960;28;20535;-68
2021/12/17 10:23:07;;;;;;;11.67;9.00;;;;;;;9.56;57.11;98580.50;5065015;28;20178;-67
2021/12/17 10:25:35;;;;;;;14.00;9.73;;;;;;;9.75;56.98;98577.38;5061907;28;20421;-68
2021/12/17 10:28:04;;;;;;;11.60;8.80;;;;;;;9.61;57.06;98577.53;5062848;28;20426;-68
2021/12/17 10:30:31;;;;;;;10.37;8.40;;;;;;;9.52;57.43;98576.44;5057171;28;20523;-68
2021/12/17 10:33:00;;;;;;;12.37;8.93;;;;;;;9.44;57.48;98568.31;5058665;28;20429;-66
2021/12/17 10:35:30;;;;;;;11.23;8.17;;;;;;;9.65;57.10;98577.19;5059802;28;20498;-67
2021/12/17 10:38:03;;;;;;;10.77;8.50;;;;;;;9.67;57.17;98575.31;5041353;28;20943;-67
2021/12/17 10:40:39;;;;;;;12.10;9.20;;;;;;;9.47;57.56;98574.16;5065747;28;20423;-68
2021/12/17 10:43:19;;;;;;;11.63;8.70;;;;;;;9.30;57.48;98583.22;5074609;28;20443;-67
2021/12/17 10:45:59;;;;;;;12.87;9.53;;;;;;;9.42;57.57;98584.09;5058212;28;20453;-67
2021/12/17 10:48:47;;;;;;;11.07;8.13;;;;;;;9.04;58.66;98588.53;5045073;28;20449;-68
2021/12/17 10:53:54;;;;;;;10.30;8.50;;;;;;;9.32;58.30;98590.94;5043128;28;20790;-68
2021/12/17 10:56:22;;;;;;;15.80;10.30;;;;;;;9.31;58.54;98589.28;5066062;28;20417;-67
2021/12/17 10:58:56;;;;;;;10.60;9.20;;;;;;;9.63;57.14;98586.94;5058309;28;20428;-70
2021/12/17 11:01:45;;;;;;;11.40;8.57;;;;;;;9.57;57.45;98584.78;5045307;28;20517;-67
2021/12/17 11:04:13;;;;;;;12.10;9.50;;;;;;;9.28;59.08;98586.88;5059631;28;20458;-67
2021/12/17 11:06:48;;;;;;;15.03;10.60;;;;;;;9.70;57.40;98584.72;5053321;28;20471;-69
2021/12/17 11:09:45;;;;;;;11.17;8.63;;;;;;;9.46;57.57;98593.41;5066694;28;20455;-69
2021/12/17 11:12:14;;;;;;;12.80;9.97;;;;;;;9.54;56.82;98590.25;5045536;28;21106;-67
2021/12/17 11:14:43;;;;;;;11.83;9.40;;;;;;;9.64;57.08;98586.00;5047713;28;20865;-68
2021/12/17 11:17:13;;;;;;;11.60;8.67;;;;;;;8.94;58.59;98589.28;5059247;28;20432;-68
2021/12/17 11:19:40;;;;;;;9.97;8.50;;;;;;;9.33;57.45;98588.22;5049921;28;20442;-68
2021/12/17 11:22:05;;;;;;;13.17;9.43;;;;;;;9.49;56.75;98580.09;5054031;28;20430;-68
2021/12/17 11:24:35;;;;;;;25.30;16.63;;;;;;;9.48;58.72;98580.19;5057543;28;20433;-68
2021/12/17 11:27:02;;;;;;;15.40;10.70;;;;;;;9.73;57.08;98579.25;5053604;28;20191;-66
2021/12/17 11:29:28;;;;;;;11.73;9.30;;;;;;;9.65;56.35;98576.34;5043973;28;21110;-65
2021/12/17 11:31:54;;;;;;;15.63;9.23;;;;;;;10.46;58.85;98571.22;5072216;28;20452;-66
2021/12/17 11:34:20;;;;;;;13.30;10.00;;;;;;;10.11;56.36;98572.09;5079415;28;20254;-65
2021/12/17 11:36:47;;;;;;;13.00;9.83;;;;;;;10.57;57.76;98559.91;5077217;28;20436;-66
2021/12/17 11:39:21;;;;;;;17.63;10.60;;;;;;;10.85;56.75;98555.13;5065304;28;20224;-67
2021/12/17 11:42:28;;;;;;;15.30;10.33;;;;;;;8.56;60.82;98570.13;5061356;28;20932;-67
2021/12/17 11:47:41;;;;;;;14.37;10.17;;;;;;;9.93;58.02;98559.44;5044271;28;20425;-67
2021/12/17 11:50:09;;;;;;;12.70;10.40;;;;;;;10.11;56.65;98556.38;5067274;28;20475;-69
2021/12/17 11:52:35;;;;;;;14.97;11.07;;;;;;;9.24;58.36;98567.94;5061626;28;20424;-68
2021/12/17 11:55:28;;;;;;;13.47;10.60;;;;;;;9.63;58.08;98567.78;5057934;28;20492;-69
2021/12/17 11:58:00;;;;;;;15.87;11.00;;;;;;;9.95;56.53;98564.56;5068503;28;20197;-69
2021/12/17 12:00:48;;;;;;;12.07;9.70;;;;;;;9.89;57.55;98565.03;5058540;28;20432;-66
2021/12/17 12:03:16;;;;;;;12.50;9.97;;;;;;;9.95;56.83;98568.03;5051322;28;20439;-68
2021/12/17 12:05:44;;;;;;;14.30;10.43;;;;;;;10.02;57.21;98562.31;5065036;28;20449;-68
2021/12/17 12:08:25;;;;;;;13.53;11.07;;;;;;;10.22;56.18;98559.00;5059232;28;20442;-68
2021/12/17 12:11:04;;;;;;;13.40;9.77;;;;;;;9.84;56.33;98549.63;5071935;28;20444;-67
2021/12/17 12:13:44;;;;;;;16.07;10.00;;;;;;;9.67;55.82;98556.97;5070076;28;20765;-68
2021/12/17 12:16:14;;;;;;;12.37;9.70;;;;;;;9.81;56.10;98560.34;5061147;28;20432;-67
2021/12/17 12:18:49;;;;;;;12.37;9.10;;;;;;;9.89;56.47;98550.13;5059449;28;20525;-67
2021/12/17 12:21:17;;;;;;;11.77;9.60;;;;;;;10.53;53.92;98556.69;5054702;28;20444;-68
2021/12/17 12:23:50;;;;;;;11.50;8.67;;;;;;;10.85;53.18;98544.63;5059239;28;20424;-67
2021/12/17 12:26:26;;;;;;;12.30;8.30;;;;;;;11.04;52.49;98544.00;5074476;28;20425;-67
2021/12/17 12:29:05;;;;;;;13.03;9.53;;;;;;;10.74;54.23;98543.69;5055599;28;20559;-68
2021/12/17 12:31:33;;;;;;;12.80;9.90;;;;;;;10.60;53.83;98557.88;5062929;28;20416;-67
2021/12/17 12:34:06;;;;;;;12.53;9.33;;;;;;;10.35;55.05;98552.81;5075213;28;20737;-67
2021/12/17 12:36:52;;;;;;;13.70;9.47;;;;;;;10.82;54.14;98564.09;5063564;28;20459;-68
2021/12/17 12:39:28;;;;;;;13.20;9.30;;;;;;;11.14;52.90;98560.69;5071304;28;20420;-67
2021/12/17 12:42:06;;;;;;;12.43;9.00;;;;;;;11.10;52.84;98545.31;5060968;28;20504;-68
2021/12/17 12:44:44;;;;;;;12.37;8.90;;;;;;;11.08;52.73;98542.81;5065017;28;20424;-67
2021/12/17 12:47:12;;;;;;;13.20;9.27;;;;;;;11.25;52.87;98535.34;5064909;28;20439;-67
2021/12/17 12:49:49;;;;;;;10.40;8.70;;;;;;;11.81;51.17;98539.53;5066674;28;20461;-67
2021/12/17 12:52:20;;;;;;;9.60;7.80;;;;;;;12.23;49.97;98536.09;5066570;28;20445;-68
2021/12/17 12:54:57;;;;;;;10.90;8.63;;;;;;;12.88;48.97;98528.75;5073045;28;20511;-67
2021/12/17 12:57:31;;;;;;;13.63;8.77;;;;;;;13.08;47.59;98527.97;5053679;28;20413;-66
2021/12/17 12:59:59;;;;;;;13.20;9.23;;;;;;;12.88;47.92;98517.38;5061967;28;20753;-66
2021/12/17 13:02:26;;;;;;;12.40;9.20;;;;;;;13.20;48.72;98529.50;5060247;28;20425;-67
2021/12/17 13:04:57;;;;;;;11.23;8.70;;;;;;;13.49;46.57;98531.34;5062871;28;20767;-66
2021/12/17 13:07:43;;;;;;;11.50;8.77;;;;;;;12.92;48.71;98533.75;5062077;28;20413;-68
2021/12/17 13:10:19;;;;;;;11.30;9.10;;;;;;;13.11;48.14;98530.31;5057044;28;20452;-67
2021/12/17 13:12:52;;;;;;;14.10;8.40;;;;;;;13.28;47.49;98521.75;5048419;28;20417;-67
2021/12/17 13:15:30;;;;;;;10.17;8.27;;;;;;;13.55;47.57;98533.44;5052400;28;20751;-67
2021/12/17 13:20:56;;;;;;;8.53;7.30;;;;;;;13.78;46.14;98538.41;5056745;28;21081;-66
2021/12/17 13:23:24;;;;;;;12.20;8.30;;;;;;;14.61;44.70;98550.16;5050393;28;20410;-67
2021/12/17 13:26:04;;;;;;;9.40;8.07;;;;;;;15.36;43.34;98536.84;5054692;28;20421;-68
2021/12/17 13:28:53;;;;;;;11.80;9.03;;;;;;;14.64;44.56;98539.28;5065168;28;20977;-68
2021/12/17 13:31:52;;;;;;;11.80;9.53;;;;;;;15.31;43.24;98547.00;5059059;28;20405;-66
2021/12/17 13:34:32;;;;;;;9.67;8.17;;;;;;;15.25;42.54;98548.44;5055249;28;20470;-67
2021/12/17 13:37:04;;;;;;;11.33;8.50;;;;;;;14.49;44.39;98531.03;5072103;28;20462;-67
2021/12/17 13:39:38;;;;;;;16.77;8.57;;;;;;;11.78;50.95;98540.63;5068637;28;20433;-66
2021/12/17 13:42:04;;;;;;;11.03;9.10;;;;;;;11.33;52.81;98539.03;5047989;28;20433;-67
2021/12/17 13:44:30;;;;;;;11.50;8.20;;;;;;;10.78;54.71;98540.81;5076531;28;20516;-67
2021/12/17 13:47:17;;;;;;;11.87;8.73;;;;;;;10.63;54.97;98527.13;5047714;28;20450;-68
2021/12/17 13:50:06;;;;;;;11.77;8.77;;;;;;;10.13;57.08;98530.91;5058833;28;20288;-68
2021/12/17 13:52:34;;;;;;;11.60;9.20;;;;;;;9.43;59.48;98535.22;5056775;28;20448;-67
2021/12/17 13:55:00;;;;;;;11.40;8.57;;;;;;;9.63;58.72;98529.34;5074688;28;20431;-67
2021/12/17 13:57:29;;;;;;;13.20;9.40;;;;;;;9.85;58.62;98530.34;5074239;28;20428;-66
2021/12/17 14:00:23;;;;;;;13.87;9.47;;;;;;;9.66;59.12;98523.03;5072110;28;20440;-67
2021/12/17 14:02:50;;;;;;;13.33;9.73;;;;;;;9.67;59.42;98520.34;5074349;28;20437;-66
2021/12/17 14:05:21;;;;;;;15.67;11.80;;;;;;;10.12;57.85;98521.38;5053440;28;20425;-69
2021/12/17 14:07:50;;;;;;;12.80;9.77;;;;;;;9.88;58.57;98530.13;5053853;28;20908;-67
2021/12/17 14:10:25;;;;;;;13.63;9.73;;;;;;;10.06;58.28;98537.56;5065412;28;20514;-67
2021/12/17 14:12:50;;;;;;;12.87;9.70;;;;;;;9.58;60.61;98554.19;5062153;28;20424;-68
2021/12/17 14:15:20;;;;;;;11.53;9.10;;;;;;;9.79;59.48;98549.16;5058857;28;20537;-67
2021/12/17 14:17:48;;;;;;;13.10;10.67;;;;;;;9.94;58.85;98545.41;5066124;28;20248;-67
2021/12/17 14:20:22;;;;;;;12.93;10.07;;;;;;;9.89;58.84;98539.66;5068222;28;20430;-67
2021/12/17 14:22:50;;;;;;;13.13;8.93;;;;;;;9.70;59.60;98542.00;5050849;28;20437;-65
2021/12/17 14:25:32;;;;;;;12.47;8.80;;;;;;;9.92;59.15;98542.06;5052406;28;20534;-67
2021/12/17 14:28:25;;;;;;;15.40;10.80;;;;;;;9.81;59.46;98552.50;5054238;28;20433;-67
2021/12/17 14:31:05;;;;;;;13.77;10.37;;;;;;;9.64;61.39;98546.72;5065434;28;20421;-69
2021/12/17 14:33:33;;;;;;;16.40;10.80;;;;;;;9.55;61.68;98549.19;5058719;28;20471;-66
2021/12/17 14:36:11;;;;;;;22.23;12.10;;;;;;;9.53;62.34;98557.97;5058640;28;20521;-68
2021/12/17 14:38:49;;;;;;;17.37;12.53;;;;;;;9.51;61.74;98553.81;5043361;28;20438;-67
2021/12/17 14:41:37;;;;;;;15.37;12.33;;;;;;;9.23;62.94;98547.97;5048363;28;20499;-65
2021/12/17 14:46:58;;;;;;;15.67;11.47;;;;;;;9.07;63.58;98562.13;5057605;28;20451;-71
2021/12/17 14:57:16;;;;;;;26.60;11.43;;;;;;;8.57;65.91;98563.91;5065912;28;20865;-66
2021/12/17 15:03:58;;;;;;;19.30;13.73;;;;;;;8.22;67.80;98581.06;5062855;28;21188;-67